nws-alerts: Checking more than four warning/county codes can delay the loading of your pages. You should use a cron job to get the data.

Nearby METAR Reports

 

KFCI - Richmond/Chester, Virginia, USA
Distance from station: ESE 7mi, 11km
Updated: Fri, 27-May-2022 8:56pm EDT
Few Clouds
Few Clouds
 Wind from WSW
Wind: WSW 10 mph , 17 km/h
Temperature: 72°F , 22°C
Dew Point: 72°F , 22°C
Humidity: 100%
Clouds: Few Clouds
Visibility: 10 miles , 16 km
Cloud details: Few Clouds 8500 ft
2022/05/28 00:56 KFCI 280056Z AUTO 24009KT 10SM FEW085 22/22 RMK AO2 SLPNO T02220217 PNO $
KRIC - Richmond, Virginia, USA
Distance from station: ENE 19mi, 30km
Updated: Fri, 27-May-2022 8:54pm EDT
Mostly cloudy
Mostly cloudy
 Wind from SW
Wind: SW 7 mph , 11 km/h
Temperature: 73°F , 23°C
Dew Point: 72°F , 22°C
Humidity: 94%
Barometer: 29.78 inHg , 1008.5 hPa
Clouds: Mostly cloudy
Visibility: 10 miles , 16 km
Cloud details: Few Clouds 1900 ft
Mostly cloudy 2700 ft
2022/05/28 00:54 KRIC 280054Z 23006KT 10SM FEW019 BKN027 23/22 A2978 RMK AO2 SLP087 T02330217
 
KPTB - Petersburg, Virginia, USA
Distance from station: SSE 19mi, 31km
Updated: Fri, 27-May-2022 8:55pm EDT
Mostly cloudy
Mostly cloudy
 Wind from SW
Wind: SW 3 mph , 6 km/h
Temperature: 72°F , 22°C
Dew Point: 68°F , 20°C
Humidity: 88%
Barometer: 29.80 inHg , 1009.1 hPa
Clouds: Mostly cloudy
Visibility: 10 miles , 16 km
Cloud details: Mostly cloudy 11000 ft
2022/05/28 00:55 KPTB 280055Z AUTO 22003KT 10SM BKN110 22/20 A2980 RMK AO2 T02170200
KOFP - Richmond/Hanover, Virginia, USA
Distance from station: NNE 22mi, 36km
Updated: Fri, 27-May-2022 8:54pm EDT
Partly cloudy
Partly cloudy
 Wind from SSW
Wind: SSW 12 mph , 19 km/h
Temperature: 75°F , 24°C
Dew Point: 70°F , 21°C
Humidity: 83%
Barometer: 29.79 inHg , 1008.8 hPa
Clouds: Partly cloudy
Visibility: 10 miles , 16 km
Cloud details: Few Clouds 2600 ft
Few Clouds 3300 ft
Partly cloudy 12000 ft
2022/05/28 00:54 KOFP 280054Z AUTO 20010KT 10SM FEW026 FEW033 SCT120 24/21 A2979 RMK AO2 TSE05 SLP084 T02390206
 
KW96 - Quinton, Virginia, USA
Distance from station: E 28mi, 46km
Updated: Fri, 27-May-2022 8:55pm EDT
Mostly cloudy
Mostly cloudy
 Wind from calm
Wind: Calm
Temperature: 73°F , 23°C
Dew Point: 72°F , 22°C
Humidity: 94%
Barometer: 29.78 inHg , 1008.5 hPa
Clouds: Mostly cloudy
Visibility: 10 miles , 16 km
Cloud details: Partly cloudy 1900 ft
Partly cloudy 3100 ft
Mostly cloudy 8500 ft
2022/05/28 00:55 KW96 280055Z AUTO 00000KT 10SM SCT019 SCT031 BKN085 23/22 A2978 RMK AO1 T02250217
KBKT - Blackstone Army, Virginia, USA
Distance from station: SW 30mi, 48km
Updated: Fri, 27-May-2022 8:56pm EDT
Clear
Clear
 Wind from SSW
Wind: SSW 9 mph , 15 km/h
Temperature: 72°F , 22°C
Dew Point: 68°F , 20°C
Humidity: 88%
Barometer: 29.77 inHg , 1008.1 hPa
Clouds: Clear
Visibility: 10 miles , 16 km
2022/05/28 00:56 KBKT 280056Z AUTO 20008KT 10SM CLR 22/20 A2977 RMK AO2 PRESFR SLP081 T02160195 $
 
KW81 - Crewe, Virginia, USA
Distance from station: SW 30mi, 49km
Updated: Fri, 27-May-2022 8:55pm EDT
Mostly cloudy
Mostly cloudy
 Wind from calm
Wind: Calm
Temperature: 70°F , 21°C
Dew Point: 63°F , 17°C
Humidity: 78%
Barometer: 29.81 inHg , 1009.5 hPa
Clouds: Mostly cloudy
Visibility: 10 miles , 16 km
Cloud details: Mostly cloudy 2300 ft
Mostly cloudy 4200 ft
Mostly cloudy 7000 ft
2022/05/28 00:55 KW81 280055Z AUTO 00000KT 10SM BKN023 BKN042 BKN070 21/17 A2981 RMK AO1 T02050172
K7W4 - Bumpass, Virginia, USA
Distance from station: N 38mi, 61km
Updated: Fri, 27-May-2022 8:55pm EDT
Overcast
Overcast
 Wind from WSW
Wind: WSW 6 mph , 9 km/h
Temperature: 64°F , 18°C
Dew Point: 64°F , 18°C
Humidity: 100%
Barometer: 29.80 inHg , 1009.1 hPa
Clouds: Overcast
Visibility: 10 miles , 16 km
Cloud details: Partly cloudy 7500 ft
Overcast 10000 ft
2022/05/28 00:55 K7W4 280055Z AUTO 25005KT 10SM SCT075 OVC100 18/18 A2980 RMK AO1 T01830177
 
KFVX - Farmville, Virginia, USA
Distance from station: W 43mi, 69km
Updated: Fri, 27-May-2022 8:55pm EDT
Overcast
Overcast
 Wind from calm
Wind: Calm
Temperature: 64°F , 18°C
Dew Point: 63°F , 17°C
Humidity: 94%
Barometer: 29.79 inHg , 1008.8 hPa
Clouds: Overcast
Visibility: 10 miles , 16 km
Cloud details: Partly cloudy 500 ft
Mostly cloudy 7000 ft
Overcast 8000 ft
2022/05/28 00:55 KFVX 280055Z AUTO 00000KT 10SM SCT005 BKN070 OVC080 18/17 A2979 RMK AO2 P0005 T01790172
KW31 - Kenbridge, Virginia, USA
Distance from station: SW 43mi, 70km
Updated: Fri, 27-May-2022 8:55pm EDT
Clear
Clear
 Wind from S
Wind: S 5 mph , 7 km/h
Temperature: 70°F , 21°C
Dew Point: 66°F , 19°C
Humidity: 88%
Barometer: 29.79 inHg , 1008.8 hPa
Clouds: Clear
Visibility: 10 miles , 16 km
2022/05/28 00:55 KW31 280055Z AUTO 19004KT 10SM CLR 21/19 A2979 RMK AO1 T02070192
 
KLKU - Louisa, Virginia, USA
Distance from station: NNW 44mi, 72km
Updated: Fri, 27-May-2022 8:55pm EDT
Rain, Overcast
Rain, Overcast
 Wind from SW
Wind: SW 5 mph , 7 km/h
Temperature: 63°F , 17°C
Dew Point: 63°F , 17°C
Humidity: 100%
Barometer: 29.81 inHg , 1009.5 hPa
Summary: Rain
Clouds: Overcast
Visibility: 10 miles , 16 km
Cloud details: Partly cloudy 4700 ft
Mostly cloudy 8500 ft
Overcast 11000 ft
2022/05/28 00:55 KLKU 280055Z AUTO 23004KT 10SM RA SCT047 BKN085 OVC110 17/17 A2981 RMK AO2 LTG DSNT NE AND E P0050 T01720170
KLVL - Lawrenceville, Virginia, USA
Distance from station: S 46mi, 75km
Updated: Fri, 27-May-2022 8:55pm EDT
Clear
Clear
 Wind from S
Wind: S 3 mph , 6 km/h
Temperature: 72°F , 22°C
Dew Point: 66°F , 19°C
Humidity: 83%
Barometer: 29.81 inHg , 1009.5 hPa
Clouds: Clear
Visibility: 10 miles , 16 km
2022/05/28 00:55 KLVL 280055Z AUTO 18003KT 10SM CLR 22/19 A2981 RMK AO1 T02160192
 
KAKQ - Norfolk/Wakefld, Virginia, USA
Distance from station: SE 47mi, 75km
Updated: Fri, 27-May-2022 8:54pm EDT
Clear
Clear
 Wind from varies
Wind: varies 5 mph , 7 km/h
Temperature: 73°F , 23°C
Dew Point: 66°F , 19°C
Humidity: 78%
Barometer: 29.79 inHg , 1008.8 hPa
Clouds: Clear
Visibility: 10 miles , 16 km
2022/05/28 00:54 KAKQ 280054Z AUTO VRB04KT 10SM CLR 23/19 A2979 RMK AO2 SLP088 T02280194
KFYJ - West Point, Virginia, USA
Distance from station: E 48mi, 78km
Updated: Fri, 27-May-2022 8:55pm EDT
Partly cloudy
Partly cloudy
 Wind from SSE
Wind: SSE 9 mph , 15 km/h
Temperature: 73°F , 23°C
Dew Point: 68°F , 20°C
Humidity: 83%
Barometer: 29.80 inHg , 1009.1 hPa
Clouds: Partly cloudy
Visibility: 10 miles , 16 km
Cloud details: Partly cloudy 2800 ft
Partly cloudy 3700 ft
Partly cloudy 4400 ft
2022/05/28 00:55 KFYJ 280055Z AUTO 16008KT 10SM SCT028 SCT037 SCT044 23/20 A2980 RMK AO1 T02260203